Pagina principale
METAR-TAF:

METAR-TAF

Aeroporti :

Aeroporto militare Cameri

Novara, Italia

latitudine: 45-31N, longitudine: 008-40E, altezza: 178 m

Osservazione

Il bollettino è stato emesso 4 ore e 19 minuti fa, alle 17:55 UTC
Vento 6 kt da sud/sud-est
Temperature 20°C
Umidità 53%
Pressione 1018 hPa
Visibilità 10 km o più
Poco nuvoloso ad un'altezza di 3000 ft

METAR: LIMN 291755Z 15006KT 9999 FEW030 20/10 Q1018 RMK FEW VIS MIN 9999 BLU

Ora: 00:14 (22:14 UTC)

Previsione

Il bollettino è stato emesso 5 ore e 14 minuti fa, alle 17:00 UTC
Previsione valida dal 29 alle 18 UTC al 30 alle 03 UTC
Vento 10 kt da est/nord-est
Visibilità 10 km o più
Nubi sparse ad un'altezza di 3000 ft
Nubi sparse ad un'altezza di 6000 ft
Evoluzione graduale
dal 29 alle 19 UTC al 29 alle 21 UTC
Vento 3 kt da direzioni variabili

TAF: LIMN 291700Z 2918/3003 07010KT 9999 SCT030 SCT060 BECMG 2919/2921 VRB03KT

Osservazioni e previsioni meteorologiche di più di 4000 aeroporti (messaggi METAR e TAF).

Le stazioni disponibili sono rappresentate dai dischi gialli e rossi sulla carta.

Puntare il mouse per vedere il nome della stazione.

Clicca sopra per visualizzare le osservazioni e previsioni meteorologiche.

Per cambiare la mappa : fare clic sui pulsanti verdi con una croce nera per ingrandire, il pulsante verde con un trattino per diminuire, o sulla freccia verde per le mappe adiacenti.


METAR-TAF: